Time;durP1;ratioP1;P1;durP2;ratioP2;P2;SDS_P1;SDS_P2;PMS_P1;PMS_P2;Temp;Humidity;BMP_temperature;BMP_pressure;BME280_temperature;BME280_humidity;BME280_pressure;Samples;Min_cycle;Max_cycle;Signal;HPM_P1;HPM_P2
2023/05/28 00:00:11;;;;;;;;;9.00;8.33;;;;;15.21;74.74;102214.63;5053514;28;10162;-64
2023/05/28 00:02:38;;;;;;;;;5.00;5.00;;;;;15.22;74.58;102208.16;5071251;28;9446;-65
2023/05/28 00:05:05;;;;;;;;;5.25;5.25;;;;;15.24;74.66;102208.81;5072889;28;9444;-65
2023/05/28 00:07:32;;;;;;;;;7.00;5.00;;;;;15.28;74.39;102209.28;5055715;28;10180;-65
2023/05/28 00:09:58;;;;;;;;;7.50;7.50;;;;;15.28;74.40;102203.88;5067156;28;9451;-65
2023/05/28 00:12:25;;;;;;;;;11.00;7.25;;;;;15.29;74.51;102192.81;5067179;28;9517;-65
2023/05/28 00:14:52;;;;;;;;;8.00;7.25;;;;;15.30;74.55;102186.34;5038770;28;9527;-65
2023/05/28 00:17:19;;;;;;;;;8.00;6.75;;;;;15.29;74.16;102190.09;5064734;28;10313;-65
2023/05/28 00:19:45;;;;;;;;;7.00;7.00;;;;;15.30;74.54;102188.22;5071007;28;9519;-64
2023/05/28 00:22:12;;;;;;;;;6.75;6.75;;;;;15.30;74.34;102183.63;5051048;28;9456;-64
2023/05/28 00:24:39;;;;;;;;;5.50;5.25;;;;;15.28;74.45;102174.03;5063124;28;9545;-66
2023/05/28 00:27:06;;;;;;;;;4.50;4.50;;;;;15.25;74.60;102177.94;5070973;28;9540;-65
2023/05/28 00:29:32;;;;;;;;;5.75;4.00;;;;;15.22;74.58;102182.91;5063087;28;9511;-65
2023/05/28 00:31:59;;;;;;;;;7.50;7.50;;;;;15.11;74.78;102177.97;5055369;28;10235;-64
2023/05/28 00:34:26;;;;;;;;;8.75;5.75;;;;;15.04;74.99;102177.94;5052326;28;9452;-65
2023/05/28 00:36:56;;;;;;;;;7.00;6.75;;;;;14.98;75.38;102182.22;5064821;28;9633;-67
2023/05/28 00:39:22;;;;;;;;;8.25;8.25;;;;;14.98;75.63;102175.97;5058467;28;9795;-66
2023/05/28 00:42:00;;;;;;;;;10.75;9.25;;;;;14.99;75.15;102181.22;5032501;28;9685;-67
2023/05/28 00:44:27;;;;;;;;;7.25;7.25;;;;;14.97;75.58;102177.00;5055676;28;9636;-67
2023/05/28 00:46:55;;;;;;;;;9.50;8.00;;;;;14.95;74.72;102179.06;5032204;28;9591;-67
2023/05/28 00:49:22;;;;;;;;;7.25;7.00;;;;;14.90;74.50;102174.19;5061736;28;9679;-67
2023/05/28 00:51:49;;;;;;;;;8.00;7.00;;;;;14.88;74.63;102167.31;5034800;28;9764;-68
2023/05/28 00:54:16;;;;;;;;;9.00;8.00;;;;;14.87;74.66;102171.03;5068313;28;10411;-67
2023/05/28 00:56:43;;;;;;;;;7.50;6.00;;;;;14.87;74.77;102166.47;5048847;28;9820;-68
2023/05/28 00:59:10;;;;;;;;;8.75;7.75;;;;;14.94;74.78;102172.78;5068362;28;9762;-65
2023/05/28 01:01:39;;;;;;;;;9.50;7.00;;;;;15.01;74.47;102173.72;5061619;28;9812;-64
2023/05/28 01:04:05;;;;;;;;;3.00;3.00;;;;;15.07;74.48;102177.56;5027995;28;9550;-64
2023/05/28 01:06:32;;;;;;;;;7.00;4.00;;;;;15.11;74.48;102176.13;5052986;28;9378;-65
2023/05/28 01:08:59;;;;;;;;;7.25;6.00;;;;;15.11;74.03;102178.84;5060400;28;9370;-66
2023/05/28 01:11:26;;;;;;;;;8.00;3.33;;;;;15.10;74.21;102182.56;5042444;28;9467;-66
2023/05/28 01:13:54;;;;;;;;;7.25;4.75;;;;;15.07;74.36;102172.13;5041442;28;9593;-65
2023/05/28 01:16:21;;;;;;;;;12.00;9.00;;;;;15.00;74.72;102177.47;5039931;28;9561;-65
2023/05/28 01:18:48;;;;;;;;;10.75;8.50;;;;;14.99;74.88;102177.63;5056879;28;9829;-64
2023/05/28 01:21:16;;;;;;;;;9.75;8.00;;;;;14.99;75.04;102181.22;5041364;28;9684;-65
2023/05/28 01:23:44;;;;;;;;;3.25;1.25;;;;;15.01;75.26;102175.59;5053930;28;9631;-64
2023/05/28 01:26:15;;;;;;;;;8.50;7.75;;;;;14.99;75.28;102172.22;5046136;28;9492;-65
2023/05/28 01:28:46;;;;;;;;;7.50;6.50;;;;;14.98;75.58;102167.84;5063387;28;9738;-63
2023/05/28 01:31:15;;;;;;;;;10.25;8.25;;;;;14.92;75.54;102172.16;5059910;28;9680;-65
2023/05/28 01:33:44;;;;;;;;;10.00;7.25;;;;;14.89;75.81;102175.25;5050364;28;9722;-64
2023/05/28 01:36:17;;;;;;;;;8.25;7.25;;;;;14.91;75.58;102175.03;5037078;28;9724;-65
2023/05/28 01:38:47;;;;;;;;;6.00;6.00;;;;;14.91;75.95;102173.19;5038847;28;9759;-63
2023/05/28 01:41:15;;;;;;;;;8.75;8.00;;;;;14.91;75.89;102173.19;5043360;28;9702;-65
2023/05/28 01:43:42;;;;;;;;;8.00;6.75;;;;;14.90;75.72;102167.94;5049059;28;9599;-64
2023/05/28 01:46:09;;;;;;;;;7.25;7.00;;;;;14.92;75.48;102165.91;5055784;28;9456;-65
2023/05/28 01:48:37;;;;;;;;;6.00;5.25;;;;;14.86;75.44;102161.22;5056950;28;9656;-65
2023/05/28 01:51:05;;;;;;;;;9.00;7.00;;;;;14.81;75.30;102157.22;5050570;28;9448;-66
2023/05/28 01:53:31;;;;;;;;;9.50;6.75;;;;;14.78;75.59;102154.88;5064606;28;9487;-65
2023/05/28 01:55:59;;;;;;;;;10.00;6.50;;;;;14.75;75.24;102154.44;5047658;28;9452;-64
2023/05/28 01:58:26;;;;;;;;;7.25;6.75;;;;;14.73;75.42;102165.44;5030116;28;9456;-65
2023/05/28 02:01:24;;;;;;;;;7.00;5.00;;;;;14.75;75.46;102159.88;5044531;28;9671;-64
2023/05/28 02:03:51;;;;;;;;;10.75;8.00;;;;;14.72;74.61;102154.81;5038346;28;9476;-65
2023/05/28 02:06:18;;;;;;;;;9.00;7.25;;;;;14.71;75.03;102153.97;5036624;28;9816;-65
2023/05/28 02:08:45;;;;;;;;;10.00;6.25;;;;;14.71;74.85;102153.97;5062457;28;9666;-65
2023/05/28 02:11:11;;;;;;;;;10.75;7.00;;;;;14.70;74.76;102163.09;5058401;28;10393;-65
2023/05/28 02:13:39;;;;;;;;;8.25;6.50;;;;;14.68;74.54;102169.78;5062392;28;9616;-65
2023/05/28 02:16:07;;;;;;;;;13.25;9.25;;;;;14.65;74.78;102160.13;5034353;28;9702;-65
2023/05/28 02:18:36;;;;;;;;;10.25;9.00;;;;;14.58;74.53;102164.63;5035466;28;9877;-65
2023/05/28 02:21:04;;;;;;;;;11.00;11.00;;;;;14.59;74.99;102166.31;5046840;28;9632;-65
2023/05/28 02:23:30;;;;;;;;;8.75;7.00;;;;;14.61;75.26;102160.72;5043343;28;9660;-65
2023/05/28 02:25:56;;;;;;;;;6.25;5.50;;;;;14.62;74.88;102165.09;5048339;28;9664;-65
2023/05/28 02:28:23;;;;;;;;;9.50;7.75;;;;;14.62;75.13;102168.63;5057361;28;9618;-65
2023/05/28 02:30:50;;;;;;;;;9.25;8.25;;;;;14.65;75.04;102170.97;5054289;28;9537;-65
2023/05/28 02:33:16;;;;;;;;;7.00;6.25;;;;;14.66;74.53;102174.53;5065841;28;9585;-65
2023/05/28 02:35:44;;;;;;;;;8.50;7.00;;;;;14.63;74.34;102172.22;5050130;28;9525;-65
2023/05/28 02:38:11;;;;;;;;;11.00;7.75;;;;;14.59;74.37;102171.75;5066094;28;9841;-65
2023/05/28 02:40:39;;;;;;;;;11.00;7.75;;;;;14.51;74.75;102169.13;5050143;28;10617;-65
2023/05/28 02:43:05;;;;;;;;;5.00;5.00;;;;;14.49;74.80;102169.31;5050826;28;9744;-65
2023/05/28 02:45:32;;;;;;;;;1.00;1.00;;;;;14.52;74.84;102170.81;5044234;28;9716;-67
2023/05/28 02:47:59;;;;;;;;;10.00;8.50;;;;;14.55;74.79;102168.56;5048164;28;9592;-64
2023/05/28 02:50:26;;;;;;;;;6.50;6.25;;;;;14.53;74.62;102167.06;5048673;28;9821;-65
2023/05/28 02:53:04;;;;;;;;;5.50;5.50;;;;;14.48;74.52;102164.88;5039946;28;10641;-64
2023/05/28 02:55:31;;;;;;;;;7.25;6.25;;;;;14.45;74.99;102170.69;5046894;28;9510;-64
2023/05/28 02:57:57;;;;;;;;;8.00;6.75;;;;;14.49;74.86;102165.75;5048083;28;9711;-65
2023/05/28 03:00:25;;;;;;;;;8.00;6.00;;;;;14.50;74.50;102170.13;5055536;28;9886;-64
2023/05/28 03:02:52;;;;;;;;;4.00;4.00;;;;;14.49;74.81;102165.75;5025071;28;9687;-65
2023/05/28 03:05:19;;;;;;;;;9.00;5.50;;;;;14.44;74.46;102169.00;5020899;28;9672;-62
2023/05/28 03:07:45;;;;;;;;;6.00;6.00;;;;;14.43;74.64;102174.63;5047436;28;9679;-65
2023/05/28 03:10:12;;;;;;;;;8.50;8.50;;;;;14.43;74.75;102180.03;5023823;28;9715;-65
2023/05/28 03:12:38;;;;;;;;;7.25;6.00;;;;;14.40;74.55;102183.94;5032469;28;9783;-64
2023/05/28 03:15:06;;;;;;;;;11.75;8.50;;;;;14.38;74.73;102174.31;5046453;28;9698;-65
2023/05/28 03:17:32;;;;;;;;;7.50;7.50;;;;;14.33;74.81;102173.00;5054647;28;9859;-65
2023/05/28 03:19:59;;;;;;;;;8.75;8.25;;;;;14.33;74.92;102170.31;5049960;28;9765;-65
2023/05/28 03:22:26;;;;;;;;;9.25;7.75;;;;;14.33;74.85;102175.72;5031893;28;9518;-65
2023/05/28 03:24:52;;;;;;;;;8.25;6.00;;;;;14.37;74.68;102169.94;5047658;28;9808;-65
2023/05/28 03:27:21;;;;;;;;;6.50;6.50;;;;;14.40;74.61;102166.84;5049013;28;9599;-64
2023/05/28 03:29:47;;;;;;;;;5.25;5.00;;;;;14.39;74.46;102170.59;5039674;28;9622;-65
2023/05/28 03:32:19;;;;;;;;;9.50;7.00;;;;;14.39;74.54;102171.44;5038860;28;9775;-65
2023/05/28 03:34:46;;;;;;;;;5.50;5.50;;;;;14.35;74.32;102173.69;5033090;28;9678;-64
2023/05/28 03:37:15;;;;;;;;;10.75;9.50;;;;;14.31;74.51;102172.38;5046644;28;10327;-65
2023/05/28 03:39:43;;;;;;;;;6.50;6.00;;;;;14.29;74.66;102166.28;5046735;28;9988;-64
2023/05/28 03:42:09;;;;;;;;;6.75;6.75;;;;;14.29;74.69;102179.81;5029002;28;9710;-65
2023/05/28 03:44:36;;;;;;;;;8.00;8.00;;;;;14.26;74.78;102177.50;5042324;28;9772;-65
2023/05/28 03:47:03;;;;;;;;;9.00;6.00;;;;;14.24;75.00;102174.13;5052117;28;9674;-65
2023/05/28 03:49:29;;;;;;;;;7.00;6.25;;;;;14.23;75.00;102179.75;5041633;28;9707;-66
2023/05/28 03:51:57;;;;;;;;;11.75;6.75;;;;;14.19;74.97;102181.97;5040616;28;9688;-67
2023/05/28 03:54:26;;;;;;;;;14.25;10.50;;;;;14.15;75.07;102174.41;5067721;28;9683;-65
2023/05/28 03:56:53;;;;;;;;;10.75;9.00;;;;;14.14;75.49;102178.13;5047941;28;9746;-65
2023/05/28 03:59:20;;;;;;;;;11.50;9.00;;;;;14.10;75.37;102183.94;5018557;28;10026;-66
2023/05/28 04:01:47;;;;;;;;;7.50;6.00;;;;;14.13;75.53;102179.16;5042968;28;9819;-65
2023/05/28 04:04:13;;;;;;;;;10.50;7.00;;;;;14.18;75.42;102184.84;5037011;28;9767;-67
2023/05/28 04:06:41;;;;;;;;;7.25;7.25;;;;;14.19;75.18;102181.97;5060009;28;9758;-65
2023/05/28 04:09:08;;;;;;;;;8.00;7.00;;;;;14.19;75.27;102184.69;5038104;28;9836;-66
2023/05/28 04:11:37;;;;;;;;;9.00;7.00;;;;;14.20;75.02;102178.25;5042782;28;9615;-65
2023/05/28 04:14:03;;;;;;;;;8.50;7.00;;;;;14.19;74.83;102187.41;5037408;28;11975;-66
2023/05/28 04:16:31;;;;;;;;;6.00;6.00;;;;;14.20;75.23;102188.22;5066400;28;9759;-66
2023/05/28 04:19:00;;;;;;;;;16.25;10.00;;;;;14.19;75.02;102186.56;5048613;28;9615;-66
2023/05/28 04:21:28;;;;;;;;;9.25;9.25;;;;;14.15;75.04;102185.25;5063698;28;9707;-65
2023/05/28 04:23:55;;;;;;;;;8.75;7.00;;;;;14.16;75.08;102173.38;5048920;28;9839;-65
2023/05/28 04:26:22;;;;;;;;;11.00;8.50;;;;;14.17;75.14;102175.91;5059104;28;9623;-66
2023/05/28 04:28:52;;;;;;;;;11.50;6.50;;;;;14.18;74.91;102179.44;5040005;28;9819;-65
2023/05/28 04:31:19;;;;;;;;;7.00;7.00;;;;;14.15;74.89;102182.53;5030751;28;10401;-65
2023/05/28 04:33:48;;;;;;;;;8.75;8.75;;;;;14.12;74.67;102185.63;5066479;28;9593;-65
2023/05/28 04:36:14;;;;;;;;;7.50;6.00;;;;;14.06;74.90;102192.63;5050161;28;9678;-66
2023/05/28 04:38:42;;;;;;;;;10.50;9.00;;;;;14.05;75.43;102199.03;5036638;28;9931;-65
2023/05/28 04:41:13;;;;;;;;;15.00;9.00;;;;;14.07;75.46;102191.59;5053907;28;9645;-65
2023/05/28 04:44:06;;;;;;;;;8.00;8.00;;;;;14.13;74.86;102195.41;5062582;28;9716;-67
2023/05/28 04:46:33;;;;;;;;;12.00;6.00;;;;;14.15;74.97;102196.09;5025817;28;9837;-67
2023/05/28 04:49:01;;;;;;;;;12.25;11.75;;;;;14.15;74.86;102201.50;5015952;28;10790;-68
2023/05/28 04:51:28;;;;;;;;;6.75;6.75;;;;;14.13;74.87;102208.94;5012473;28;9678;-68
2023/05/28 04:53:54;;;;;;;;;9.25;8.75;;;;;14.10;74.41;102196.63;5030512;28;9708;-68
2023/05/28 04:56:22;;;;;;;;;5.25;5.00;;;;;14.12;74.90;102197.28;4993673;28;9700;-68
2023/05/28 04:58:49;;;;;;;;;6.75;6.50;;;;;14.17;74.59;102200.28;5003985;28;9576;-68
2023/05/28 05:01:16;;;;;;;;;4.00;4.00;;;;;14.22;74.58;102194.28;4994664;28;9812;-68
2023/05/28 05:03:43;;;;;;;;;7.00;7.00;;;;;14.25;74.35;102193.94;4992454;28;9602;-67
2023/05/28 05:06:11;;;;;;;;;8.50;8.50;;;;;14.25;73.86;102192.06;4993970;28;9611;-68
2023/05/28 05:08:37;;;;;;;;;7.00;6.25;;;;;14.23;74.06;102190.59;4993778;28;9744;-68
2023/05/28 05:11:06;;;;;;;;;10.50;8.00;;;;;14.24;74.20;102201.22;4975203;28;10249;-68
2023/05/28 05:13:32;;;;;;;;;7.67;6.00;;;;;14.29;73.84;102200.66;4996918;28;9685;-68
2023/05/28 05:15:59;;;;;;;;;11.00;8.75;;;;;14.30;73.87;102203.19;5003826;28;9431;-68
2023/05/28 05:18:26;;;;;;;;;6.50;5.00;;;;;14.33;74.29;102199.25;4993488;28;9622;-68
2023/05/28 05:20:53;;;;;;;;;10.00;8.00;;;;;14.39;73.24;102198.53;5008166;28;9632;-68
2023/05/28 05:23:19;;;;;;;;;11.00;10.00;;;;;14.40;73.18;102191.25;5011001;28;9696;-68
2023/05/28 05:25:47;;;;;;;;;5.50;5.50;;;;;14.44;73.32;102190.69;5005522;28;9633;-68
2023/05/28 05:28:14;;;;;;;;;10.50;8.50;;;;;14.50;72.37;102191.81;4988391;28;9560;-67
2023/05/28 05:30:40;;;;;;;;;9.75;9.00;;;;;14.56;72.44;102197.34;4991016;28;9714;-70
2023/05/28 05:33:07;;;;;;;;;13.00;10.50;;;;;14.61;71.49;102202.19;5001857;28;9489;-68
2023/05/28 05:35:50;;;;;;;;;7.50;7.50;;;;;14.75;71.66;102204.06;4990694;28;9637;-68
2023/05/28 05:38:38;;;;;;;;;9.75;8.00;;;;;14.88;70.65;102200.69;4988210;28;9631;-68
2023/05/28 05:41:23;;;;;;;;;12.33;9.00;;;;;14.89;70.25;102199.66;5005946;28;9458;-68
2023/05/28 05:44:00;;;;;;;;;7.50;7.50;;;;;14.87;70.09;102201.72;4973071;28;9665;-68
2023/05/28 05:46:27;;;;;;;;;13.50;10.00;;;;;14.85;69.21;102198.34;4990255;28;9561;-68
2023/05/28 05:48:53;;;;;;;;;10.00;7.75;;;;;14.88;69.91;102202.56;4994317;28;9653;-69
2023/05/28 05:51:21;;;;;;;;;8.50;7.00;;;;;14.95;69.19;102219.72;4989333;28;9657;-68
2023/05/28 05:53:48;;;;;;;;;8.25;6.75;;;;;14.93;68.75;102211.78;4976998;28;9485;-68
2023/05/28 05:56:16;;;;;;;;;8.50;7.75;;;;;14.92;69.17;102203.84;4987754;28;9573;-70
2023/05/28 05:58:42;;;;;;;;;12.00;10.50;;;;;15.00;69.44;102201.88;4985892;28;9610;-69
2023/05/28 06:01:16;;;;;;;;;10.00;8.50;;;;;15.12;69.15;102196.78;4989547;28;9553;-71
2023/05/28 06:03:43;;;;;;;;;9.50;7.50;;;;;15.19;69.30;102211.28;4986591;28;9410;-68
2023/05/28 06:06:30;;;;;;;;;11.00;9.50;;;;;15.22;68.96;102197.31;5005854;28;9507;-69
2023/05/28 06:09:16;;;;;;;;;11.50;8.75;;;;;15.19;68.88;102200.44;5008244;28;9701;-69
2023/05/28 06:11:47;;;;;;;;;9.50;9.25;;;;;15.21;69.39;102202.94;5008609;28;9582;-69
2023/05/28 06:14:13;;;;;;;;;8.67;6.67;;;;;15.22;69.54;102212.75;5006316;28;9400;-68
2023/05/28 06:16:41;;;;;;;;;10.67;7.33;;;;;15.20;69.53;102212.13;5007471;28;9388;-69
2023/05/28 06:19:08;;;;;;;;;6.75;6.50;;;;;15.21;69.53;102222.78;4992656;28;9491;-69
2023/05/28 06:21:36;;;;;;;;;9.33;8.67;;;;;15.27;69.72;102219.31;4992455;28;9431;-68
2023/05/28 06:24:04;;;;;;;;;11.25;9.75;;;;;15.27;69.17;102216.59;4988823;28;9293;-70
2023/05/28 06:26:35;;;;;;;;;7.67;7.00;;;;;15.26;69.71;102216.75;4989973;28;9699;-69
2023/05/28 06:29:01;;;;;;;;;7.25;7.25;;;;;15.22;69.14;102227.16;4989017;28;9596;-68
2023/05/28 06:31:30;;;;;;;;;11.00;8.00;;;;;15.19;69.17;102221.25;4971299;28;9596;-69
2023/05/28 06:33:57;;;;;;;;;8.33;8.33;;;;;15.18;69.07;102223.13;4976565;28;9327;-69
2023/05/28 06:36:23;;;;;;;;;8.67;6.67;;;;;15.16;68.57;102216.25;5008437;28;9994;-69
2023/05/28 06:38:50;;;;;;;;;8.00;8.00;;;;;15.15;69.01;102219.97;4976037;28;9395;-67
2023/05/28 06:41:17;;;;;;;;;14.75;10.50;;;;;15.15;68.65;102223.53;4992263;28;9392;-67
2023/05/28 06:43:47;;;;;;;;;6.00;6.00;;;;;15.10;68.34;102231.38;4974539;28;9481;-71
2023/05/28 06:46:25;;;;;;;;;8.00;8.00;;;;;15.03;68.26;102220.47;4987685;28;9438;-68
2023/05/28 06:48:51;;;;;;;;;10.25;8.00;;;;;15.08;68.25;102222.63;4986602;28;9485;-68
2023/05/28 06:51:18;;;;;;;;;8.33;8.33;;;;;15.14;68.21;102235.41;4992000;28;9387;-71
2023/05/28 06:53:45;;;;;;;;;7.00;7.00;;;;;15.18;68.75;102230.44;4989912;28;9419;-71
2023/05/28 06:56:13;;;;;;;;;9.33;6.00;;;;;15.26;67.60;102233.03;4986114;28;9473;-68
2023/05/28 06:59:12;;;;;;;;;10.00;8.00;;;;;15.23;67.41;102233.41;4991470;28;9330;-70
2023/05/28 07:01:47;;;;;;;;;7.00;4.33;;;;;15.27;68.22;102226.56;4991586;28;9439;-70
2023/05/28 07:04:40;;;;;;;;;7.75;7.25;;;;;15.39;67.12;102224.19;5004884;28;9366;-69
2023/05/28 07:07:17;;;;;;;;;6.67;6.67;;;;;15.49;67.77;102239.16;5001673;28;9897;-70
2023/05/28 07:09:44;;;;;;;;;10.50;9.00;;;;;15.51;67.09;102236.22;4972463;28;9259;-70
2023/05/28 07:12:11;;;;;;;;;6.00;6.00;;;;;15.55;66.58;102241.06;4990793;28;10248;-70
2023/05/28 07:14:43;;;;;;;;;8.00;6.33;;;;;15.57;66.44;102243.63;4984753;28;9325;-70
2023/05/28 07:17:10;;;;;;;;;7.67;6.67;;;;;15.57;65.52;102252.59;4982492;28;9224;-70
2023/05/28 07:19:39;;;;;;;;;10.00;9.67;;;;;15.52;64.85;102257.78;4989251;28;9415;-70
2023/05/28 07:22:06;;;;;;;;;6.33;6.33;;;;;15.43;65.44;102256.19;4992690;28;9357;-70
2023/05/28 07:24:37;;;;;;;;;10.67;8.00;;;;;15.47;65.57;102267.50;4993449;28;9192;-70
2023/05/28 07:27:04;;;;;;;;;10.00;8.67;;;;;15.51;65.72;102260.66;4994308;28;9333;-70
2023/05/28 07:29:30;;;;;;;;;9.67;9.67;;;;;15.54;64.99;102266.53;4992388;28;9478;-70
2023/05/28 07:31:57;;;;;;;;;11.00;8.00;;;;;15.56;65.18;102258.22;4988233;28;9468;-70
2023/05/28 07:34:25;;;;;;;;;13.00;8.50;;;;;15.55;64.97;102264.66;4992131;28;9373;-70
2023/05/28 07:36:52;;;;;;;;;7.00;7.00;;;;;15.62;65.08;102264.75;4985358;28;9547;-71
2023/05/28 07:39:19;;;;;;;;;10.33;9.00;;;;;15.68;64.78;102262.16;4990031;28;9354;-70
2023/05/28 07:41:47;;;;;;;;;6.33;6.00;;;;;15.76;64.54;102259.31;4983693;28;9339;-69
2023/05/28 07:44:28;;;;;;;;;8.00;7.67;;;;;15.76;63.96;102262.03;4988647;28;9297;-69
2023/05/28 07:46:55;;;;;;;;;9.67;8.33;;;;;15.88;64.19;102265.06;5009484;28;10032;-69
2023/05/28 07:49:46;;;;;;;;;3.00;3.00;;;;;15.94;64.39;102272.41;5000700;28;9198;-67
2023/05/28 07:52:17;;;;;;;;;6.67;6.67;;;;;15.97;64.39;102263.03;4989746;28;9151;-68
2023/05/28 07:54:44;;;;;;;;;4.67;3.33;;;;;16.05;64.39;102271.06;4990281;28;9255;-68
2023/05/28 07:57:14;;;;;;;;;6.67;5.33;;;;;16.13;64.15;102276.34;4989032;28;9143;-67
2023/05/28 07:59:42;;;;;;;;;8.33;4.67;;;;;16.20;63.78;102271.78;4988303;28;9000;-69
2023/05/28 08:02:10;;;;;;;;;8.00;6.00;;;;;16.24;63.99;102270.34;4990372;28;9007;-69
2023/05/28 08:04:36;;;;;;;;;8.67;6.33;;;;;16.23;62.03;102284.16;4988749;28;9039;-68
2023/05/28 08:07:04;;;;;;;;;12.33;6.00;;;;;16.12;61.72;102280.06;4996294;28;9038;-70
2023/05/28 08:09:31;;;;;;;;;7.33;5.67;;;;;16.12;62.64;102274.66;4993991;28;9143;-69
2023/05/28 08:12:01;;;;;;;;;8.67;7.67;;;;;16.11;61.32;102272.13;4993420;28;9095;-68
2023/05/28 08:14:30;;;;;;;;;6.00;6.00;;;;;16.05;61.22;102277.31;4992403;28;9350;-69
2023/05/28 08:17:02;;;;;;;;;7.00;7.00;;;;;16.09;61.66;102283.22;4987284;28;9185;-68
2023/05/28 08:19:58;;;;;;;;;9.67;8.67;;;;;16.13;60.85;102270.91;4994770;28;9471;-71
2023/05/28 08:22:36;;;;;;;;;5.33;5.33;;;;;16.12;59.78;102276.53;4980454;28;9942;-67
2023/05/28 08:25:04;;;;;;;;;10.67;8.67;;;;;16.10;61.01;102273.19;5005014;28;9217;-68
2023/05/28 08:27:31;;;;;;;;;7.67;6.67;;;;;16.14;62.30;102286.16;5011198;28;10139;-68
2023/05/28 08:29:57;;;;;;;;;11.33;9.33;;;;;16.18;62.37;102268.44;4990942;28;9309;-70
2023/05/28 08:32:26;;;;;;;;;11.00;9.00;;;;;16.29;62.29;102281.50;4999220;28;9201;-68
2023/05/28 08:34:52;;;;;;;;;5.67;3.67;;;;;16.36;62.12;102275.25;4983750;28;9334;-68
2023/05/28 08:37:19;;;;;;;;;9.67;8.00;;;;;16.37;61.08;102282.41;4993655;28;9216;-67
2023/05/28 08:40:10;;;;;;;;;10.33;8.33;;;;;16.28;59.64;102268.09;5002849;28;9013;-68
2023/05/28 08:42:39;;;;;;;;;10.00;6.00;;;;;16.32;60.30;102266.66;4992960;28;9186;-68
2023/05/28 08:45:06;;;;;;;;;6.00;6.00;;;;;16.41;60.93;102270.09;5009920;28;9096;-68
2023/05/28 08:47:37;;;;;;;;;7.33;6.67;;;;;16.40;61.39;102271.94;4990801;28;9185;-67
2023/05/28 08:50:15;;;;;;;;;10.00;9.00;;;;;16.45;61.61;102271.38;5004449;28;9362;-68
2023/05/28 08:52:59;;;;;;;;;8.00;7.67;;;;;16.43;61.34;102270.72;4989614;28;9187;-69
2023/05/28 08:55:25;;;;;;;;;15.67;10.00;;;;;16.41;62.16;102264.66;4993188;28;9007;-68
2023/05/28 08:58:03;;;;;;;;;13.67;9.67;;;;;16.47;61.92;102264.69;5010408;28;9110;-68
2023/05/28 09:00:30;;;;;;;;;7.00;6.33;;;;;16.53;62.19;102268.50;5008160;28;9199;-68
2023/05/28 09:03:19;;;;;;;;;14.00;11.67;;;;;16.54;62.22;102271.00;4989233;28;9102;-67
2023/05/28 09:05:47;;;;;;;;;7.00;7.00;;;;;16.47;61.71;102272.00;4991333;28;9200;-68
2023/05/28 09:08:14;;;;;;;;;9.33;9.33;;;;;16.48;62.20;102266.34;4979071;28;9798;-68
2023/05/28 09:10:42;;;;;;;;;11.00;10.67;;;;;16.46;62.28;102257.56;4976880;28;9345;-67
2023/05/28 09:13:09;;;;;;;;;12.33;12.33;;;;;16.49;62.88;102270.78;5011471;28;9252;-68
2023/05/28 09:15:37;;;;;;;;;13.00;10.33;;;;;16.53;62.64;102263.06;4988232;28;9280;-68
2023/05/28 09:18:07;;;;;;;;;9.00;9.00;;;;;16.54;62.13;102267.47;4988670;28;9179;-69
2023/05/28 09:20:35;;;;;;;;;16.00;12.67;;;;;16.51;61.83;102268.69;4987683;28;9300;-68
2023/05/28 09:23:04;;;;;;;;;11.67;10.33;;;;;16.57;61.77;102261.63;5009473;28;9205;-68
2023/05/28 09:26:09;;;;;;;;;12.67;8.33;;;;;16.58;61.84;102266.03;4963614;28;9400;-68
2023/05/28 09:28:54;;;;;;;;;11.67;10.00;;;;;16.59;61.97;102264.13;4977533;28;9190;-67
2023/05/28 09:31:27;;;;;;;;;10.67;10.67;;;;;16.55;61.01;102272.69;4990542;28;9330;-68
2023/05/28 09:33:54;;;;;;;;;9.00;8.33;;;;;16.55;60.43;102269.97;4999475;28;9250;-67
2023/05/28 09:36:20;;;;;;;;;7.33;6.67;;;;;16.60;60.89;102272.09;4989112;28;9792;-67
2023/05/28 09:38:47;;;;;;;;;7.67;7.00;;;;;16.64;60.81;102284.25;5009624;28;9251;-68
2023/05/28 09:41:22;;;;;;;;;8.00;8.00;;;;;16.66;60.72;102274.03;4975718;28;9778;-68
2023/05/28 09:44:01;;;;;;;;;10.67;10.00;;;;;16.68;60.46;102281.97;5004815;28;9299;-67
2023/05/28 09:46:30;;;;;;;;;13.33;12.67;;;;;16.66;60.96;102273.19;4988176;28;9263;-68
2023/05/28 09:48:58;;;;;;;;;14.00;10.67;;;;;16.68;62.06;102266.47;4990074;28;9175;-67
2023/05/28 09:51:28;;;;;;;;;12.00;11.33;;;;;16.77;61.42;102265.34;4990474;28;9217;-68
2023/05/28 09:54:03;;;;;;;;;14.67;13.33;;;;;16.89;60.46;102264.75;5008061;28;9225;-67
2023/05/28 09:56:31;;;;;;;;;11.00;9.67;;;;;16.92;60.81;102256.19;4988570;28;9298;-72
2023/05/28 09:59:02;;;;;;;;;13.67;7.67;;;;;17.02;60.89;102265.66;5005977;28;9085;-71
2023/05/28 10:01:58;;;;;;;;;15.67;12.33;;;;;17.07;60.52;102254.19;5007779;28;9075;-71
2023/05/28 10:04:33;;;;;;;;;11.33;11.33;;;;;17.11;60.85;102262.78;5007676;28;9387;-71
2023/05/28 10:07:00;;;;;;;;;10.00;9.67;;;;;17.17;61.01;102265.50;5007849;28;9814;-70
2023/05/28 10:09:31;;;;;;;;;14.33;11.00;;;;;17.20;59.63;102253.38;5004541;28;9102;-70
2023/05/28 10:12:16;;;;;;;;;11.67;11.00;;;;;17.23;59.98;102250.25;5002063;28;9247;-69
2023/05/28 10:14:43;;;;;;;;;16.00;10.00;;;;;17.26;59.51;102261.59;5009184;28;9105;-68
2023/05/28 10:17:10;;;;;;;;;13.00;13.00;;;;;17.35;59.33;102262.25;4990236;28;9261;-67
2023/05/28 10:19:38;;;;;;;;;15.67;13.33;;;;;17.27;59.29;102257.81;5008840;28;9015;-71
2023/05/28 10:22:05;;;;;;;;;12.33;8.33;;;;;17.22;59.78;102263.03;5011079;28;9254;-70
2023/05/28 10:24:35;;;;;;;;;13.33;11.33;;;;;17.25;59.84;102261.78;4997670;28;9026;-71
2023/05/28 10:27:06;;;;;;;;;11.00;7.00;;;;;17.38;60.11;102263.69;4973556;28;9243;-70
2023/05/28 10:29:42;;;;;;;;;8.67;8.67;;;;;17.59;59.97;102262.72;5007357;28;9019;-71
2023/05/28 10:32:13;;;;;;;;;12.00;8.33;;;;;17.66;58.06;102260.84;5008378;28;9141;-71
2023/05/28 10:34:39;;;;;;;;;8.67;8.67;;;;;17.65;58.01;102267.34;5003662;28;9012;-69
2023/05/28 10:37:08;;;;;;;;;8.67;6.67;;;;;17.65;58.17;102262.72;4989748;28;8988;-68
2023/05/28 10:39:47;;;;;;;;;10.33;9.33;;;;;17.64;57.75;102260.22;5008533;28;9023;-72
2023/05/28 10:42:16;;;;;;;;;13.67;10.00;;;;;17.68;57.84;102261.47;4986162;28;9047;-71
2023/05/28 10:44:59;;;;;;;;;12.00;10.67;;;;;17.72;57.65;102265.47;5026949;22;9207;-66
2023/05/28 10:47:37;;;;;;;;;10.67;9.33;;;;;17.70;57.56;102273.84;5029492;28;9006;-65
2023/05/28 10:50:12;;;;;;;;;9.67;8.00;;;;;17.81;57.63;102274.31;5046928;28;8968;-66
2023/05/28 10:53:10;;;;;;;;;8.25;8.25;;;;;17.96;56.87;102272.25;5046395;28;8980;-66
2023/05/28 10:55:50;;;;;;;;;11.00;9.67;;;;;17.96;56.47;102277.69;5036527;28;8896;-65
2023/05/28 10:58:25;;;;;;;;;9.67;7.33;;;;;17.98;55.57;102272.84;5023580;28;9098;-65
2023/05/28 11:00:52;;;;;;;;;9.50;8.00;;;;;17.96;55.20;102273.06;5024788;28;9004;-65
2023/05/28 11:03:58;;;;;;;;;6.50;6.50;;;;;18.03;55.09;102270.38;5027707;28;9490;-66
2023/05/28 11:06:26;;;;;;;;;9.50;9.50;;;;;18.03;55.13;102270.38;5028752;28;8846;-65
2023/05/28 11:08:52;;;;;;;;;7.50;7.25;;;;;18.11;55.21;102277.47;5007992;28;8929;-65
2023/05/28 11:11:19;;;;;;;;;13.75;8.75;;;;;18.13;54.84;102278.09;5028357;28;8825;-65
2023/05/28 11:13:47;;;;;;;;;7.00;5.75;;;;;18.17;54.17;102274.75;5023949;28;9965;-66
2023/05/28 11:16:18;;;;;;;;;9.00;7.50;;;;;18.27;54.49;102266.13;5025925;28;8819;-66
2023/05/28 11:19:04;;;;;;;;;12.50;10.25;;;;;18.37;53.64;102265.72;5028765;28;8826;-66
2023/05/28 11:21:32;;;;;;;;;8.75;7.75;;;;;18.43;53.79;102264.88;5009806;28;8841;-66
2023/05/28 11:24:00;;;;;;;;;12.75;9.75;;;;;18.47;53.02;102260.66;5012005;28;8857;-66
2023/05/28 11:26:27;;;;;;;;;11.25;11.00;;;;;18.48;52.25;102273.28;5010263;28;8855;-65
2023/05/28 11:28:54;;;;;;;;;7.50;6.75;;;;;18.37;52.00;102272.03;5024504;28;8807;-65
2023/05/28 11:31:21;;;;;;;;;7.25;6.75;;;;;18.34;51.77;102261.53;5019492;28;8904;-66
2023/05/28 11:33:51;;;;;;;;;5.00;5.00;;;;;18.35;51.30;102262.38;5026191;28;8831;-66
2023/05/28 11:36:20;;;;;;;;;11.50;8.25;;;;;18.38;50.66;102262.78;5021744;28;9604;-66
2023/05/28 11:38:47;;;;;;;;;4.75;4.75;;;;;18.43;49.66;102264.88;5004421;28;8845;-66
2023/05/28 11:41:13;;;;;;;;;11.00;9.50;;;;;18.46;48.12;102259.00;5028174;28;8853;-66